createdAt,value
2018-08-20T00:01:45.515Z,20.55
2018-08-20T00:04:14.887Z,20.59
2018-08-20T00:06:55.151Z,20.56
2018-08-20T00:09:35.811Z,20.49
2018-08-20T00:12:06.446Z,20.07
2018-08-20T00:14:35.875Z,20.35
2018-08-20T00:17:05.591Z,20.34
2018-08-20T00:19:35.191Z,20.26
2018-08-20T00:22:04.495Z,20.29
2018-08-20T00:24:33.850Z,20.24
2018-08-20T00:27:03.966Z,20.19
2018-08-20T00:29:37.051Z,20.18
2018-08-20T00:32:06.437Z,20.17
2018-08-20T00:34:35.802Z,20.18
2018-08-20T00:37:05.208Z,20.10
2018-08-20T00:39:34.399Z,20.05
2018-08-20T00:42:04.008Z,20.07
2018-08-20T00:44:33.246Z,20.18
2018-08-20T00:47:02.710Z,20.05
2018-08-20T00:49:31.894Z,19.80
2018-08-20T00:52:01.412Z,19.79
2018-08-20T00:54:30.813Z,19.78
2018-08-20T00:57:00.215Z,19.60
2018-08-20T00:59:29.411Z,19.56
2018-08-20T01:01:58.815Z,19.53
2018-08-20T01:04:28.242Z,19.55
2018-08-20T01:06:57.823Z,19.49
2018-08-20T01:09:27.023Z,19.50
2018-08-20T01:11:56.685Z,19.55
2018-08-20T01:14:26.031Z,19.43
2018-08-20T01:16:55.432Z,19.43
2018-08-20T01:19:24.836Z,19.51
2018-08-20T01:21:57.208Z,19.42
2018-08-20T01:24:26.608Z,19.39
2018-08-20T01:26:55.982Z,19.35
2018-08-20T01:29:25.411Z,19.32
2018-08-20T01:31:54.712Z,19.24
2018-08-20T01:34:24.013Z,19.07
2018-08-20T01:36:53.413Z,19.02
2018-08-20T01:39:22.921Z,19.06
2018-08-20T01:41:52.219Z,19.08
2018-08-20T01:44:21.548Z,19.06
2018-08-20T01:46:50.918Z,18.94
2018-08-20T01:49:20.151Z,18.99
2018-08-20T01:51:49.519Z,19.03
2018-08-20T01:54:19.124Z,18.93
2018-08-20T01:56:48.392Z,18.91
2018-08-20T01:59:17.634Z,18.89
2018-08-20T02:01:47.023Z,18.77
2018-08-20T02:04:16.425Z,18.72
2018-08-20T02:06:45.932Z,18.59
2018-08-20T02:09:15.189Z,18.70
2018-08-20T02:11:44.443Z,18.67
2018-08-20T02:14:13.725Z,18.68
2018-08-20T02:16:43.434Z,18.66
2018-08-20T02:19:12.722Z,18.63
2018-08-20T02:21:41.957Z,18.64
2018-08-20T02:24:11.182Z,18.52
2018-08-20T02:26:40.633Z,18.54
2018-08-20T02:29:10.035Z,18.39
2018-08-20T02:31:39.333Z,18.49
2018-08-20T02:34:08.841Z,18.55
2018-08-20T02:36:38.083Z,18.54
2018-08-20T02:39:10.598Z,18.54
2018-08-20T02:41:40.719Z,18.55
2018-08-20T02:44:11.055Z,18.52
2018-08-20T02:46:48.466Z,18.49
2018-08-20T02:49:18.220Z,18.40
2018-08-20T02:51:48.744Z,18.38
2018-08-20T02:54:18.391Z,18.31
2018-08-20T02:56:48.923Z,18.37
2018-08-20T02:59:18.533Z,18.19
2018-08-20T03:01:47.930Z,17.98
2018-08-20T03:04:17.367Z,17.97
2018-08-20T03:06:46.835Z,17.99
2018-08-20T03:09:16.733Z,17.99
2018-08-20T03:11:46.152Z,18.02
2018-08-20T03:14:15.450Z,17.96
2018-08-20T03:16:44.761Z,17.99
2018-08-20T03:19:14.153Z,18.03
2018-08-20T03:21:43.554Z,18.04
2018-08-20T03:24:12.957Z,18.00
2018-08-20T03:26:42.359Z,18.00
2018-08-20T03:29:11.765Z,18.01
2018-08-20T03:31:40.949Z,17.95
2018-08-20T03:34:10.974Z,17.88
2018-08-20T03:36:40.424Z,17.90
2018-08-20T03:39:09.781Z,17.93
2018-08-20T03:41:39.180Z,17.99
2018-08-20T03:44:08.592Z,17.80
2018-08-20T03:46:37.944Z,17.59
2018-08-20T03:49:07.592Z,17.56
2018-08-20T03:51:36.994Z,17.62
2018-08-20T03:54:06.803Z,17.59
2018-08-20T03:56:36.309Z,17.61
2018-08-20T03:59:05.917Z,17.59
2018-08-20T04:01:35.522Z,17.61
2018-08-20T04:04:05.130Z,17.67
2018-08-20T04:06:34.618Z,17.57
2018-08-20T04:09:04.345Z,17.56
2018-08-20T04:11:33.539Z,17.66
2018-08-20T04:14:02.759Z,17.62
2018-08-20T04:16:32.241Z,17.60
2018-08-20T04:19:05.655Z,17.57
2018-08-20T04:21:35.039Z,17.58
2018-08-20T04:24:04.537Z,17.62
2018-08-20T04:26:33.756Z,17.66
2018-08-20T04:29:03.245Z,17.63
2018-08-20T04:31:32.648Z,17.71
2018-08-20T04:34:02.050Z,17.73
2018-08-20T04:36:31.373Z,17.79
2018-08-20T04:39:00.752Z,17.81
2018-08-20T04:41:30.153Z,17.84
2018-08-20T04:43:59.453Z,17.84
2018-08-20T04:46:28.858Z,17.88
2018-08-20T04:48:58.257Z,17.93
2018-08-20T04:51:27.838Z,17.99
2018-08-20T04:53:57.046Z,17.99
2018-08-20T04:56:26.731Z,18.05
2018-08-20T04:58:56.377Z,18.12
2018-08-20T05:01:31.968Z,18.11
2018-08-20T05:04:01.379Z,18.04
2018-08-20T05:06:30.610Z,18.18
2018-08-20T05:08:59.846Z,18.43
2018-08-20T05:11:29.225Z,18.31
2018-08-20T05:13:58.639Z,18.34
2018-08-20T05:16:28.194Z,18.42
2018-08-20T05:19:03.868Z,18.56
2018-08-20T05:21:33.388Z,18.65
2018-08-20T05:24:02.719Z,18.70
2018-08-20T05:26:32.234Z,18.83
2018-08-20T05:29:01.653Z,18.86
2018-08-20T05:31:30.996Z,18.93
2018-08-20T05:34:00.396Z,18.97
2018-08-20T05:36:29.697Z,18.88
2018-08-20T05:38:58.974Z,18.94
2018-08-20T05:41:28.382Z,18.92
2018-08-20T05:43:57.799Z,19.17
2018-08-20T05:46:27.203Z,19.24
2018-08-20T05:48:56.533Z,19.38
2018-08-20T05:51:25.746Z,19.53
2018-08-20T05:53:54.976Z,19.61
2018-08-20T05:56:24.398Z,19.71
2018-08-20T05:58:53.846Z,19.76
2018-08-20T06:01:23.115Z,19.80
2018-08-20T06:03:52.506Z,19.99
2018-08-20T06:06:22.006Z,20.06
2018-08-20T06:08:51.408Z,20.23
2018-08-20T06:11:21.015Z,20.39
2018-08-20T06:13:50.621Z,20.55
2018-08-20T06:16:19.919Z,20.63
2018-08-20T06:18:49.162Z,20.64
2018-08-20T06:21:18.387Z,20.83
2018-08-20T06:23:47.614Z,20.84
2018-08-20T06:26:17.017Z,20.93
2018-08-20T06:28:46.337Z,21.13
2018-08-20T06:31:15.719Z,21.35
2018-08-20T06:33:44.964Z,21.32
2018-08-20T06:36:14.316Z,21.36
2018-08-20T06:38:43.718Z,21.43
2018-08-20T06:41:13.123Z,21.71
2018-08-20T06:43:42.527Z,21.79
2018-08-20T06:46:11.762Z,21.71
2018-08-20T06:48:41.142Z,21.73
2018-08-20T06:51:10.831Z,21.86
2018-08-20T06:53:40.034Z,22.09
2018-08-20T06:56:09.322Z,22.27
2018-08-20T06:58:38.627Z,22.44
2018-08-20T07:01:08.543Z,22.25
2018-08-20T07:03:37.947Z,22.38
2018-08-20T07:06:07.499Z,22.36
2018-08-20T07:08:36.780Z,22.13
2018-08-20T07:11:06.048Z,22.58
2018-08-20T07:13:36.584Z,22.34
2018-08-20T07:16:07.001Z,22.61
2018-08-20T07:18:36.513Z,22.71
2018-08-20T07:21:05.895Z,22.68
2018-08-20T07:23:35.581Z,22.76
2018-08-20T07:26:04.968Z,22.14
2018-08-20T07:28:34.538Z,22.45
2018-08-20T07:31:04.112Z,22.47
2018-08-20T07:33:33.922Z,22.52
2018-08-20T07:36:03.877Z,22.64
2018-08-20T07:38:34.010Z,22.64
2018-08-20T07:41:03.896Z,22.49
2018-08-20T07:43:33.913Z,22.67
2018-08-20T07:46:03.559Z,22.85
2018-08-20T07:48:33.843Z,23.02
2018-08-20T07:51:03.847Z,22.73
2018-08-20T07:53:33.675Z,22.78
2018-08-20T07:56:03.284Z,22.72
2018-08-20T07:58:33.223Z,23.07
2018-08-20T08:01:03.513Z,23.38
2018-08-20T08:03:33.377Z,23.36
2018-08-20T08:06:04.726Z,23.24
2018-08-20T08:08:34.953Z,23.06
2018-08-20T08:11:07.302Z,22.84
2018-08-20T08:13:37.196Z,23.27
2018-08-20T08:16:08.130Z,23.59
2018-08-20T08:18:38.109Z,23.26
2018-08-20T08:21:08.481Z,23.43
2018-08-20T08:23:38.373Z,23.22
2018-08-20T08:26:09.295Z,23.19
2018-08-20T08:28:39.254Z,22.86
2018-08-20T08:31:09.041Z,23.27
2018-08-20T08:33:38.873Z,23.16
2018-08-20T08:36:09.387Z,23.60
2018-08-20T08:38:39.027Z,23.68
2018-08-20T08:41:08.940Z,23.96
2018-08-20T08:43:38.753Z,23.84
2018-08-20T08:46:08.524Z,24.17
2018-08-20T08:48:38.335Z,23.97
2018-08-20T08:51:08.265Z,24.07
2018-08-20T08:53:37.837Z,24.18
2018-08-20T08:56:07.787Z,23.78
2018-08-20T08:58:39.502Z,23.91
2018-08-20T09:01:09.385Z,24.12
2018-08-20T09:03:39.339Z,23.99
2018-08-20T09:06:09.353Z,24.06
2018-08-20T09:08:39.136Z,23.91
2018-08-20T09:11:09.973Z,23.62
2018-08-20T09:13:39.886Z,23.74
2018-08-20T09:16:09.634Z,23.86
2018-08-20T09:18:39.936Z,23.77
2018-08-20T09:21:10.634Z,24.03
2018-08-20T09:23:40.454Z,24.16
2018-08-20T09:26:10.988Z,24.11
2018-08-20T09:28:41.224Z,24.05
2018-08-20T09:31:11.238Z,23.73
2018-08-20T09:33:41.290Z,23.75
2018-08-20T09:36:11.014Z,24.01
2018-08-20T09:38:41.844Z,24.33
2018-08-20T09:41:11.560Z,24.00
2018-08-20T09:43:41.306Z,24.10
2018-08-20T09:46:11.063Z,24.01
2018-08-20T09:48:40.878Z,24.13
2018-08-20T09:51:10.390Z,24.26
2018-08-20T09:53:40.288Z,24.31
2018-08-20T09:56:10.470Z,24.33
2018-08-20T09:58:40.026Z,24.33
2018-08-20T10:01:11.321Z,24.30
2018-08-20T10:03:46.605Z,24.21
2018-08-20T10:06:16.731Z,24.16
2018-08-20T10:08:46.531Z,24.07
2018-08-20T10:11:16.764Z,23.68
2018-08-20T10:13:46.599Z,23.66
2018-08-20T10:16:16.383Z,24.12
2018-08-20T10:18:46.067Z,24.37
2018-08-20T10:21:16.308Z,24.49
2018-08-20T10:23:46.268Z,24.49
2018-08-20T10:26:15.990Z,24.37
2018-08-20T10:28:45.661Z,24.21
2018-08-20T10:31:15.381Z,24.38
2018-08-20T10:33:44.979Z,24.22
2018-08-20T10:36:14.526Z,24.11
2018-08-20T10:38:44.186Z,24.31
2018-08-20T10:41:13.719Z,24.28
2018-08-20T10:43:43.200Z,24.45
2018-08-20T10:46:21.545Z,24.74
2018-08-20T10:48:50.908Z,24.78
2018-08-20T10:51:20.628Z,24.87
2018-08-20T10:53:50.234Z,24.82
2018-08-20T10:56:20.076Z,24.80
2018-08-20T10:58:49.642Z,24.92
2018-08-20T11:01:19.767Z,25.54
2018-08-20T11:03:54.834Z,25.76
2018-08-20T11:06:24.883Z,26.19
2018-08-20T11:08:54.491Z,26.35
2018-08-20T11:11:24.273Z,26.41
2018-08-20T11:13:53.735Z,26.25
2018-08-20T11:16:23.593Z,26.61
2018-08-20T11:18:53.665Z,26.76
2018-08-20T11:21:23.400Z,26.98
2018-08-20T11:23:53.070Z,27.28
2018-08-20T11:26:22.925Z,27.80
2018-08-20T11:28:52.575Z,28.24
2018-08-20T11:31:22.367Z,28.63
2018-08-20T11:33:52.394Z,28.51
2018-08-20T11:36:22.156Z,28.57
2018-08-20T11:38:51.969Z,28.65
2018-08-20T11:41:21.643Z,28.54
2018-08-20T11:43:51.398Z,28.78
2018-08-20T11:46:21.058Z,29.08
2018-08-20T11:48:51.025Z,28.83
2018-08-20T11:51:20.615Z,28.77
2018-08-20T11:53:50.339Z,28.69
2018-08-20T11:56:20.030Z,28.70
2018-08-20T11:58:49.975Z,28.65
2018-08-20T12:01:19.946Z,28.82
2018-08-20T12:03:54.178Z,28.46
2018-08-20T12:06:26.218Z,28.16
2018-08-20T12:08:56.488Z,27.84
2018-08-20T12:11:26.248Z,27.81
2018-08-20T12:13:56.211Z,27.88
2018-08-20T12:16:26.074Z,27.93
2018-08-20T12:18:55.941Z,28.22
2018-08-20T12:21:25.769Z,27.70
2018-08-20T12:23:55.675Z,27.13
2018-08-20T12:26:25.626Z,27.41
2018-08-20T12:28:55.644Z,27.17
2018-08-20T12:31:27.407Z,27.14
2018-08-20T12:33:57.237Z,27.56
2018-08-20T12:37:08.231Z,27.69
2018-08-20T12:39:51.764Z,27.80
2018-08-20T12:42:41.960Z,27.58
2018-08-20T12:45:11.778Z,27.74
2018-08-20T12:47:41.762Z,27.71
2018-08-20T12:50:11.224Z,27.66
2018-08-20T12:52:41.729Z,27.66
2018-08-20T12:55:11.678Z,27.70
2018-08-20T12:57:41.427Z,27.73
2018-08-20T13:00:12.087Z,27.71
2018-08-20T13:02:41.983Z,27.54
2018-08-20T13:05:13.492Z,27.30
2018-08-20T13:07:43.310Z,27.44
2018-08-20T13:10:13.240Z,27.41
2018-08-20T13:12:44.856Z,27.59
2018-08-20T13:15:15.565Z,27.59
2018-08-20T13:17:46.175Z,27.54
2018-08-20T13:20:17.309Z,27.36
2018-08-20T13:22:47.722Z,27.31
2018-08-20T13:25:17.581Z,27.23
2018-08-20T13:27:47.492Z,27.43
2018-08-20T13:30:17.451Z,27.16
2018-08-20T13:32:48.171Z,27.33
2018-08-20T13:35:18.005Z,27.31
2018-08-20T13:37:47.688Z,27.40
2018-08-20T13:40:19.547Z,27.42
2018-08-20T13:42:49.617Z,27.72
2018-08-20T13:45:19.979Z,27.81
2018-08-20T13:47:49.833Z,27.79
2018-08-20T13:50:19.810Z,27.93
2018-08-20T13:52:49.744Z,28.06
2018-08-20T13:55:19.662Z,28.03
2018-08-20T13:57:50.022Z,27.96
2018-08-20T14:00:21.744Z,28.20
2018-08-20T14:02:53.362Z,27.99
2018-08-20T14:05:23.410Z,28.29
2018-08-20T14:07:55.380Z,28.23
2018-08-20T14:10:27.790Z,28.40
2018-08-20T14:12:57.598Z,28.58
2018-08-20T14:15:28.401Z,28.48
2018-08-20T14:17:59.465Z,28.30
2018-08-20T14:20:29.287Z,27.97
2018-08-20T14:22:58.999Z,27.81
2018-08-20T14:25:29.016Z,28.01
2018-08-20T14:27:59.409Z,27.92
2018-08-20T14:30:29.315Z,28.15
2018-08-20T14:32:58.978Z,28.39
2018-08-20T14:35:29.654Z,28.26
2018-08-20T14:37:59.159Z,28.12
2018-08-20T14:40:28.978Z,28.09
2018-08-20T14:42:58.650Z,28.26
2018-08-20T14:46:32.168Z,28.08
2018-08-20T14:49:02.133Z,28.27
2018-08-20T14:51:31.906Z,28.05
2018-08-20T14:54:01.996Z,28.30
2018-08-20T14:56:31.955Z,28.24
2018-08-20T14:59:01.502Z,27.93
2018-08-20T15:01:31.918Z,27.20
2018-08-20T15:04:01.806Z,27.55
2018-08-20T15:06:31.668Z,27.43
2018-08-20T15:09:04.806Z,27.70
2018-08-20T15:11:35.215Z,27.88
2018-08-20T15:14:05.071Z,28.03
2018-08-20T15:16:34.856Z,27.74
2018-08-20T15:19:05.518Z,27.68
2018-08-20T15:21:35.386Z,27.77
2018-08-20T15:24:05.400Z,27.84
2018-08-20T15:26:35.044Z,27.59
2018-08-20T15:29:04.920Z,27.44
2018-08-20T15:31:35.165Z,27.63
2018-08-20T15:34:04.925Z,27.56
2018-08-20T15:36:34.741Z,27.22
2018-08-20T15:39:04.817Z,27.12
2018-08-20T15:41:35.061Z,26.99
2018-08-20T15:44:05.570Z,27.06
2018-08-20T15:46:35.265Z,26.97
2018-08-20T15:49:05.342Z,27.17
2018-08-20T15:51:35.035Z,27.17
2018-08-20T15:54:04.884Z,27.09
2018-08-20T15:56:35.336Z,27.12
2018-08-20T15:59:05.042Z,27.02
2018-08-20T16:01:34.816Z,27.02
2018-08-20T16:04:04.743Z,26.93
2018-08-20T16:06:34.297Z,27.15
2018-08-20T16:09:04.321Z,27.22
2018-08-20T16:11:33.747Z,27.28
2018-08-20T16:14:02.972Z,27.12
2018-08-20T16:16:32.368Z,27.08
2018-08-20T16:19:01.758Z,27.07
2018-08-20T16:21:31.185Z,26.88
2018-08-20T16:24:00.773Z,26.93
2018-08-20T16:26:30.328Z,26.80
2018-08-20T16:28:59.771Z,26.84
2018-08-20T16:31:29.286Z,26.95
2018-08-20T16:33:58.695Z,26.87
2018-08-20T16:36:28.194Z,26.75
2018-08-20T16:38:57.694Z,26.68
2018-08-20T16:41:27.202Z,26.75
2018-08-20T16:43:56.702Z,26.82
2018-08-20T16:46:26.073Z,26.90
2018-08-20T16:48:55.630Z,26.14
2018-08-20T16:51:25.270Z,26.88
2018-08-20T16:53:54.589Z,26.85
2018-08-20T16:56:23.823Z,26.93
2018-08-20T16:58:53.321Z,27.04
2018-08-20T17:01:22.722Z,27.22
2018-08-20T17:03:52.429Z,27.26
2018-08-20T17:06:22.447Z,27.35
2018-08-20T17:08:51.849Z,27.31
2018-08-20T17:11:21.355Z,27.25
2018-08-20T17:13:50.762Z,27.11
2018-08-20T17:16:20.158Z,26.91
2018-08-20T17:18:49.560Z,26.93
2018-08-20T17:21:19.065Z,26.75
2018-08-20T17:23:48.467Z,26.88
2018-08-20T17:26:17.869Z,26.85
2018-08-20T17:28:47.174Z,26.78
2018-08-20T17:31:16.674Z,26.80
2018-08-20T17:33:46.105Z,26.78
2018-08-20T17:36:15.478Z,26.61
2018-08-20T17:38:45.188Z,26.61
2018-08-20T17:41:14.803Z,26.65
2018-08-20T17:43:44.390Z,26.68
2018-08-20T17:46:13.791Z,26.71
2018-08-20T17:48:43.188Z,26.58
2018-08-20T17:51:14.556Z,26.64
2018-08-20T17:53:49.795Z,26.81
2018-08-20T17:56:19.285Z,26.80
2018-08-20T17:58:57.436Z,26.59
2018-08-20T18:01:27.396Z,26.58
2018-08-20T18:03:56.914Z,26.64
2018-08-20T18:06:50.043Z,26.70
2018-08-20T18:09:19.474Z,26.71
2018-08-20T18:11:48.874Z,26.69
2018-08-20T18:14:21.051Z,26.67
2018-08-20T18:16:50.545Z,26.55
2018-08-20T18:19:20.261Z,26.47
2018-08-20T18:21:50.069Z,26.52
2018-08-20T18:24:20.668Z,26.44
2018-08-20T18:26:54.655Z,26.33
2018-08-20T18:29:24.416Z,26.42
2018-08-20T18:31:56.959Z,26.44
2018-08-20T18:34:26.711Z,26.33
2018-08-20T18:36:56.059Z,26.31
2018-08-20T18:39:25.516Z,26.12
2018-08-20T18:41:59.270Z,26.15
2018-08-20T18:44:28.819Z,26.24
2018-08-20T18:46:58.429Z,26.26
2018-08-20T18:49:28.297Z,26.11
2018-08-20T18:52:14.742Z,26.06
2018-08-20T18:54:45.931Z,26.03
2018-08-20T18:57:30.028Z,26.05
2018-08-20T19:00:03.272Z,26.06
2018-08-20T19:02:41.717Z,26.02
2018-08-20T19:05:14.032Z,25.99
2018-08-20T19:07:44.341Z,25.97
2018-08-20T19:10:19.505Z,25.92
2018-08-20T19:12:49.440Z,25.90
2018-08-20T19:15:38.544Z,25.88
2018-08-20T19:20:46.131Z,25.73
2018-08-20T19:23:16.031Z,25.62
2018-08-20T19:25:46.115Z,25.69
2018-08-20T19:28:23.420Z,25.68
2018-08-20T19:30:55.032Z,25.55
2018-08-20T19:33:27.319Z,25.56
2018-08-20T19:35:57.225Z,25.61
2018-08-20T19:38:26.809Z,25.54
2018-08-20T19:41:04.381Z,25.51
2018-08-20T19:43:44.064Z,25.38
2018-08-20T19:46:14.075Z,25.27
2018-08-20T19:48:43.939Z,25.26
2018-08-20T19:51:13.655Z,25.27
2018-08-20T19:53:43.212Z,25.29
2018-08-20T19:56:14.257Z,25.28
2018-08-20T19:58:44.339Z,25.21
2018-08-20T20:01:15.569Z,25.16
2018-08-20T20:03:47.192Z,25.10
2018-08-20T20:06:17.165Z,25.15
2018-08-20T20:08:47.085Z,25.15
2018-08-20T20:11:23.189Z,25.11
2018-08-20T20:13:53.986Z,25.14
2018-08-20T20:16:23.927Z,25.01
2018-08-20T20:18:54.934Z,25.05
2018-08-20T20:21:25.157Z,24.89
2018-08-20T20:23:55.881Z,24.93
2018-08-20T20:26:25.287Z,24.92
2018-08-20T20:28:54.692Z,24.88
2018-08-20T20:31:24.298Z,24.82
2018-08-20T20:33:54.060Z,24.83
2018-08-20T20:36:26.253Z,24.70
2018-08-20T20:38:56.988Z,24.72
2018-08-20T20:41:26.928Z,24.77
2018-08-20T20:43:56.500Z,24.78
2018-08-20T20:46:27.263Z,24.70
2018-08-20T20:48:56.691Z,24.64
2018-08-20T20:51:26.274Z,24.64
2018-08-20T20:53:55.691Z,24.56
2018-08-20T20:56:25.384Z,24.48
2018-08-20T20:58:55.878Z,24.39
2018-08-20T21:01:25.371Z,24.29
2018-08-20T21:03:55.023Z,23.91
2018-08-20T21:06:27.561Z,24.06
2018-08-20T21:08:58.969Z,24.04
2018-08-20T21:11:28.759Z,23.94
2018-08-20T21:13:58.186Z,23.93
2018-08-20T21:16:27.973Z,23.91
2018-08-20T21:18:58.197Z,23.84
2018-08-20T21:21:28.516Z,23.79
2018-08-20T21:24:00.173Z,23.74
2018-08-20T21:26:29.658Z,23.70
2018-08-20T21:28:59.099Z,23.71
2018-08-20T21:31:30.906Z,23.71
2018-08-20T21:34:01.652Z,23.53
2018-08-20T21:36:31.278Z,23.47
2018-08-20T21:39:00.680Z,23.51
2018-08-20T21:41:30.594Z,23.54
2018-08-20T21:44:00.099Z,23.48
2018-08-20T21:46:29.604Z,23.40
2018-08-20T21:48:59.312Z,23.40
2018-08-20T21:51:30.455Z,23.38
2018-08-20T21:53:59.892Z,23.32
2018-08-20T21:57:01.876Z,23.31
2018-08-20T21:59:31.432Z,23.30
2018-08-20T22:02:00.987Z,23.27
2018-08-20T22:04:31.530Z,23.31
2018-08-20T22:07:01.227Z,23.34
2018-08-20T22:09:30.575Z,23.40
2018-08-20T22:12:00.080Z,23.42
2018-08-20T22:14:29.569Z,23.43
2018-08-20T22:16:59.189Z,23.44
2018-08-20T22:19:28.694Z,23.42
2018-08-20T22:21:58.302Z,23.41
2018-08-20T22:24:27.702Z,23.41
2018-08-20T22:26:59.271Z,23.41
2018-08-20T22:29:36.831Z,23.40
2018-08-20T22:32:08.092Z,23.38
2018-08-20T22:34:37.676Z,23.38
2018-08-20T22:37:08.535Z,23.37
2018-08-20T22:39:38.040Z,23.35
2018-08-20T22:42:07.446Z,23.35
2018-08-20T22:44:36.947Z,23.44
2018-08-20T22:47:06.453Z,23.43
2018-08-20T22:49:35.853Z,23.36
2018-08-20T22:52:09.581Z,23.35
2018-08-20T22:54:38.958Z,23.35
2018-08-20T22:57:08.360Z,23.38
2018-08-20T22:59:37.763Z,23.43
2018-08-20T23:02:07.121Z,23.39
2018-08-20T23:04:36.566Z,23.39
2018-08-20T23:07:10.268Z,23.39
2018-08-20T23:09:39.858Z,23.38
2018-08-20T23:12:09.488Z,23.44
2018-08-20T23:14:38.885Z,23.41
2018-08-20T23:17:08.390Z,23.37
2018-08-20T23:19:37.894Z,23.39
2018-08-20T23:22:07.501Z,23.43
2018-08-20T23:24:43.324Z,23.42
2018-08-20T23:27:12.584Z,23.39
2018-08-20T23:29:45.626Z,22.87
2018-08-20T23:32:15.558Z,23.29
2018-08-20T23:34:45.023Z,23.38
2018-08-20T23:37:14.359Z,23.34
2018-08-20T23:39:43.761Z,23.31
2018-08-20T23:42:13.161Z,23.40
2018-08-20T23:44:42.562Z,23.39
2018-08-20T23:47:12.068Z,23.44
2018-08-20T23:49:41.674Z,23.40
2018-08-20T23:52:11.013Z,23.42
2018-08-20T23:54:40.274Z,23.39
2018-08-20T23:57:09.674Z,23.38
2018-08-20T23:59:38.978Z,23.38
